Time;durP1;ratioP1;P1;durP2;ratioP2;P2;SDS_P1;SDS_P2;PMS_P1;PMS_P2;Temp;Humidity;BMP_temperature;BMP_pressure;BME280_temperature;BME280_humidity;BME280_pressure;Samples;Min_cycle;Max_cycle;Signal;HPM_P1;HPM_P2
2022/01/15 00:00:06;;;;;;;4.55;1.10;;;;;;;0.24;58.57;95816.19;5045255;28;20069;-71
2022/01/15 00:02:38;;;;;;;4.28;1.08;;;;;;;0.23;58.70;95828.00;5046669;28;20045;-72
2022/01/15 00:05:05;;;;;;;1.70;0.93;;;;;;;0.28;58.62;95817.16;5039559;28;20058;-69
2022/01/15 00:07:32;;;;;;;4.28;1.00;;;;;;;0.39;58.36;95823.09;5047047;28;20069;-72
2022/01/15 00:09:58;;;;;;;5.00;1.08;;;;;;;0.39;58.35;95830.34;5046376;28;20517;-71
2022/01/15 00:12:24;;;;;;;4.50;0.90;;;;;;;0.32;58.40;95838.03;5048308;28;20048;-71
2022/01/15 00:14:52;;;;;;;4.90;1.30;;;;;;;0.33;58.70;95828.88;5045127;28;20089;-70
2022/01/15 00:17:43;;;;;;;3.97;0.90;;;;;;;0.31;59.20;95856.06;5047958;28;20045;-70
2022/01/15 00:20:05;;;;;;;5.15;1.58;;;;;;;0.30;59.47;95848.31;5048014;28;20053;-70
2022/01/15 00:22:33;;;;;;;2.83;0.93;;;;;;;0.33;60.33;95863.81;5045939;28;20515;-70
2022/01/15 00:24:59;;;;;;;3.35;1.05;;;;;;;0.30;60.83;95859.84;5051396;28;20041;-71
2022/01/15 00:27:25;;;;;;;4.15;1.15;;;;;;;0.27;61.37;95847.81;5053921;28;20101;-71
2022/01/15 00:29:51;;;;;;;4.55;1.35;;;;;;;0.24;61.90;95853.00;5055975;28;20048;-71
2022/01/15 00:32:18;;;;;;;2.40;1.10;;;;;;;0.20;62.13;95860.88;5044327;28;20065;-70
2022/01/15 00:34:44;;;;;;;4.45;1.38;;;;;;;0.18;62.62;95852.31;5045640;28;20103;-71
2022/01/15 00:37:10;;;;;;;6.88;1.50;;;;;;;0.09;62.76;95870.28;5039226;28;20047;-71
2022/01/15 00:39:38;;;;;;;6.20;1.40;;;;;;;0.12;62.51;95870.44;5047349;28;20460;-70
2022/01/15 00:42:08;;;;;;;5.50;1.58;;;;;;;0.16;62.30;95867.16;5064966;28;20055;-71
2022/01/15 00:44:35;;;;;;;6.43;1.40;;;;;;;0.26;61.87;95861.56;5050729;28;20060;-71
2022/01/15 00:47:02;;;;;;;5.22;1.30;;;;;;;0.26;61.75;95859.69;5049240;28;20049;-70
2022/01/15 00:49:28;;;;;;;4.18;0.93;;;;;;;0.16;61.74;95881.38;5047325;28;20048;-71
2022/01/15 00:51:54;;;;;;;4.20;1.20;;;;;;;0.16;61.45;95867.97;5050906;28;20417;-69
2022/01/15 00:54:20;;;;;;;4.07;1.05;;;;;;;0.28;61.14;95887.03;5049078;28;20063;-70
2022/01/15 00:56:48;;;;;;;3.53;0.95;;;;;;;0.35;60.78;95883.94;5049652;28;20131;-70
2022/01/15 00:59:14;;;;;;;3.42;1.02;;;;;;;0.34;60.31;95870.78;5040350;28;20053;-73
2022/01/15 01:01:40;;;;;;;7.55;1.20;;;;;;;0.44;59.71;95894.75;5036081;28;20049;-70
2022/01/15 01:04:06;;;;;;;6.40;1.17;;;;;;;0.35;59.76;95885.81;5052379;28;20048;-71
2022/01/15 01:06:32;;;;;;;3.38;0.80;;;;;;;0.38;59.50;95888.69;5048651;28;20551;-75
2022/01/15 01:08:59;;;;;;;4.68;1.25;;;;;;;0.45;59.31;95887.47;5043704;28;20061;-75
2022/01/15 01:11:43;;;;;;;4.05;0.90;;;;;;;0.35;59.30;95889.31;5029901;28;20048;-73
2022/01/15 01:22:53;;;;;;;2.50;0.80;;;;;;;0.32;58.99;95895.28;5033384;28;20466;-73
2022/01/15 01:25:16;;;;;;;4.63;1.02;;;;;;;0.25;58.83;95889.53;5046129;28;20049;-73
2022/01/15 01:27:49;;;;;;;7.78;1.23;;;;;;;0.21;59.18;95905.44;5046056;28;20127;-73
2022/01/15 01:30:31;;;;;;;5.63;0.85;;;;;;;0.17;59.41;95920.59;5050973;28;20399;-73
2022/01/15 01:33:17;;;;;;;8.00;1.48;;;;;;;0.18;59.37;95908.75;5053604;28;20041;-74
2022/01/15 01:35:47;;;;;;;4.07;1.23;;;;;;;0.20;59.81;95917.28;5045485;28;20505;-74
2022/01/15 01:38:34;;;;;;;3.13;1.10;;;;;;;0.25;59.80;95919.09;5047956;28;20044;-73
2022/01/15 01:41:01;;;;;;;7.45;1.40;;;;;;;0.30;59.85;95918.19;5051211;28;20452;-72
2022/01/15 01:48:37;;;;;;;7.30;1.30;;;;;;;0.38;60.16;95923.63;5044446;28;20144;-72
2022/01/15 01:51:08;;;;;;;5.82;1.35;;;;;;;0.14;61.07;95910.44;5049842;28;20041;-71
2022/01/15 01:53:35;;;;;;;6.40;1.10;;;;;;;0.25;60.84;95919.09;5022065;28;20048;-72
2022/01/15 01:56:03;;;;;;;2.95;1.10;;;;;;;0.21;61.24;95915.41;5036237;28;20045;-71
2022/01/15 01:58:29;;;;;;;3.95;1.40;;;;;;;0.21;61.10;95907.34;5044484;28;20048;-72
2022/01/15 02:00:56;;;;;;;2.53;0.93;;;;;;;0.23;61.10;95921.28;5051180;28;20131;-73
2022/01/15 02:03:24;;;;;;;4.32;1.38;;;;;;;0.17;60.93;95917.13;5051504;28;20049;-73
2022/01/15 02:05:53;;;;;;;;;;;;;;;0.24;61.31;95930.94;5029272;28;20091;-72
2022/01/15 02:08:19;;;;;;;2.88;1.13;;;;;;;0.23;61.11;95930.13;5052348;28;19924;-72
2022/01/15 02:10:46;;;;;;;2.20;0.90;;;;;;;0.28;60.78;95924.66;5051316;28;20523;-72
2022/01/15 02:13:13;;;;;;;2.80;0.98;;;;;;;0.27;60.55;95924.94;5044391;28;20053;-73
2022/01/15 02:15:40;;;;;;;4.40;1.42;;;;;;;0.28;60.81;95937.28;5045596;28;20053;-73
2022/01/15 02:18:06;;;;;;;3.45;1.10;;;;;;;0.14;61.20;95938.09;5041482;28;20497;-72
2022/01/15 02:20:58;;;;;;;4.65;1.65;;;;;;;0.11;60.88;95927.97;5048630;28;20575;-73
2022/01/15 02:23:33;;;;;;;;;;;;;;;0.13;60.70;95933.03;5046865;28;20045;-70
2022/01/15 02:26:02;;;;;;;1.65;0.70;;;;;;;0.12;60.57;95936.84;5049214;28;20385;-72
2022/01/15 02:28:32;;;;;;;3.15;1.00;;;;;;;0.25;59.95;95945.94;5019181;28;20048;-72
2022/01/15 02:31:00;;;;;;;2.85;1.08;;;;;;;0.26;59.81;95944.84;5051267;28;20049;-72
2022/01/15 02:33:27;;;;;;;3.10;0.98;;;;;;;0.26;59.77;95936.78;5052452;28;20118;-71
2022/01/15 02:35:55;;;;;;;6.18;1.65;;;;;;;0.28;59.72;95937.28;5052772;28;20052;-72
2022/01/15 02:38:22;;;;;;;4.38;1.02;;;;;;;0.35;59.69;95947.63;5050917;28;20048;-72
2022/01/15 02:40:49;;;;;;;4.20;1.10;;;;;;;0.34;59.63;95949.53;5053399;28;20064;-74
2022/01/15 02:43:19;;;;;;;2.78;1.25;;;;;;;0.21;59.95;95948.44;5049978;28;20050;-74
2022/01/15 02:45:54;;;;;;;3.30;1.10;;;;;;;0.19;60.28;95960.59;5051708;28;20083;-74
2022/01/15 02:48:22;;;;;;;2.97;1.10;;;;;;;0.22;60.48;95966.16;5046846;28;20708;-73
2022/01/15 02:50:49;;;;;;;8.40;1.33;;;;;;;0.31;60.53;95963.53;5052903;28;20083;-72
2022/01/15 02:53:18;;;;;;;7.75;1.42;;;;;;;0.38;60.58;95968.50;5047698;28;20041;-72
2022/01/15 02:55:46;;;;;;;7.65;1.50;;;;;;;0.29;60.90;95973.81;5047842;28;20041;-71
2022/01/15 02:58:12;;;;;;;5.20;1.90;;;;;;;0.25;61.56;95964.75;5042600;28;20053;-72
2022/01/15 03:00:40;;;;;;;8.00;1.70;;;;;;;0.21;61.92;95955.72;5052963;28;20052;-73
2022/01/15 03:03:07;;;;;;;5.80;1.35;;;;;;;0.22;61.92;95974.22;5052434;28;20053;-73
2022/01/15 03:05:33;;;;;;;3.97;1.55;;;;;;;0.11;62.83;95983.59;5050840;28;20057;-73
2022/01/15 03:08:00;;;;;;;4.40;1.40;;;;;;;0.00;63.43;95983.00;5047696;28;20586;-74
2022/01/15 03:10:27;;;;;;;7.70;2.40;;;;;;;0.11;63.40;95984.38;5052282;28;20481;-74
2022/01/15 03:12:55;;;;;;;5.47;1.80;;;;;;;0.18;63.47;95977.81;5050440;28;20045;-74
2022/01/15 03:15:21;;;;;;;6.55;1.90;;;;;;;0.15;63.52;95971.16;5047944;28;20063;-73
2022/01/15 03:17:48;;;;;;;5.65;1.85;;;;;;;0.19;63.42;95971.34;5050806;28;20418;-72
2022/01/15 03:20:16;;;;;;;5.78;1.80;;;;;;;0.12;63.62;95987.88;5052004;28;20037;-73
2022/01/15 03:22:42;;;;;;;5.97;1.48;;;;;;;0.13;63.71;95989.47;5050535;28;20525;-73
2022/01/15 03:25:09;;;;;;;4.68;1.55;;;;;;;0.10;63.74;95982.78;5045178;28;20049;-72
2022/01/15 03:27:37;;;;;;;3.08;1.27;;;;;;;0.18;63.77;95978.59;5052333;28;20053;-72
2022/01/15 03:30:04;;;;;;;3.22;1.35;;;;;;;0.21;62.99;95963.78;5051922;28;20043;-73
2022/01/15 03:32:30;;;;;;;3.78;1.38;;;;;;;0.36;62.83;95989.53;5043745;28;20098;-73
2022/01/15 03:34:56;;;;;;;4.25;1.50;;;;;;;0.08;63.53;95982.31;5049212;28;20103;-72
2022/01/15 03:37:23;;;;;;;3.72;1.50;;;;;;;0.17;63.12;95973.53;5046770;28;20107;-72
2022/01/15 03:39:49;;;;;;;6.28;1.70;;;;;;;0.06;63.94;95989.06;5050838;28;20092;-72
2022/01/15 03:42:15;;;;;;;6.75;2.20;;;;;;;0.16;63.73;95988.84;5047112;28;20049;-73
2022/01/15 03:44:48;;;;;;;12.10;1.58;;;;;;;0.17;63.82;95997.72;5050528;28;20053;-73
2022/01/15 03:47:16;;;;;;;3.42;1.13;;;;;;;0.15;63.75;95998.00;5049430;28;20098;-73
2022/01/15 03:49:42;;;;;;;5.45;1.70;;;;;;;0.18;63.91;95991.25;5051508;28;20045;-74
2022/01/15 03:52:10;;;;;;;6.25;1.30;;;;;;;0.19;64.14;96004.38;5045300;28;20135;-72
2022/01/15 03:54:36;;;;;;;7.35;1.40;;;;;;;0.28;63.69;96005.28;5051270;28;20056;-74
2022/01/15 03:57:04;;;;;;;3.92;1.25;;;;;;;0.24;63.68;96003.47;5050161;28;20053;-73
2022/01/15 03:59:30;;;;;;;6.70;1.70;;;;;;;0.16;63.84;96004.16;5041884;28;20527;-72
2022/01/15 04:01:57;;;;;;;4.00;1.25;;;;;;;0.15;63.85;96000.69;5050499;28;20045;-73
2022/01/15 04:04:23;;;;;;;;;;;;;;;0.17;63.81;96011.16;5050897;28;20501;-73
2022/01/15 04:06:53;;;;;;;3.03;1.13;;;;;;;0.12;64.00;96020.13;5050793;28;19931;-73
2022/01/15 04:09:19;;;;;;;2.78;1.10;;;;;;;0.15;64.00;96011.44;5050675;28;20467;-73
2022/01/15 04:11:46;;;;;;;3.80;1.20;;;;;;;0.24;63.89;96020.41;5051103;28;20547;-73
2022/01/15 04:14:12;;;;;;;3.95;1.30;;;;;;;0.38;63.63;96025.75;5050115;28;20053;-72
2022/01/15 04:16:38;;;;;;;5.85;1.50;;;;;;;0.31;63.66;96016.50;5050777;28;20051;-73
2022/01/15 04:19:07;;;;;;;3.58;1.23;;;;;;;0.27;63.46;96011.75;5047047;28;20053;-72
2022/01/15 04:21:34;;;;;;;5.85;1.40;;;;;;;0.29;63.76;96024.88;5050895;28;20448;-73
2022/01/15 04:24:01;;;;;;;4.18;1.25;;;;;;;0.32;63.76;96026.97;5050707;28;20421;-73
2022/01/15 04:26:28;;;;;;;5.63;1.58;;;;;;;0.38;63.55;96033.81;5048650;28;20140;-73
2022/01/15 04:28:55;;;;;;;4.80;1.63;;;;;;;0.37;63.53;96032.22;5044730;28;20044;-74
2022/01/15 04:31:22;;;;;;;2.97;1.20;;;;;;;0.36;63.62;96041.38;5047868;28;20124;-74
2022/01/15 04:33:48;;;;;;;4.10;1.17;;;;;;;0.28;64.06;96039.41;5050376;28;20053;-73
2022/01/15 04:36:16;;;;;;;3.30;1.10;;;;;;;0.18;64.39;96040.41;5048903;28;20057;-73
2022/01/15 04:38:43;;;;;;;3.80;0.95;;;;;;;0.23;64.52;96042.19;5049656;28;20049;-74
2022/01/15 04:41:09;;;;;;;3.80;1.23;;;;;;;0.28;64.40;96042.09;5050321;28;20044;-73
2022/01/15 04:43:35;;;;;;;5.63;2.17;;;;;;;0.25;64.50;96050.75;5045921;28;20056;-73
2022/01/15 04:46:02;;;;;;;4.43;1.05;;;;;;;0.32;64.31;96051.16;5044261;28;20050;-73
2022/01/15 04:48:29;;;;;;;3.45;1.15;;;;;;;0.18;64.88;96053.84;5037892;28;20087;-74
2022/01/15 04:50:55;;;;;;;3.28;1.15;;;;;;;0.20;64.79;96059.69;5048740;28;20425;-74
2022/01/15 04:53:24;;;;;;;3.00;1.20;;;;;;;0.27;64.47;96067.38;5046045;28;20059;-73
2022/01/15 04:55:51;;;;;;;2.30;0.90;;;;;;;0.30;64.25;96065.97;5040049;28;20527;-74
2022/01/15 04:58:19;;;;;;;2.80;1.00;;;;;;;0.35;63.77;96063.19;5047688;28;20041;-73
2022/01/15 05:00:46;;;;;;;3.72;1.27;;;;;;;0.28;63.93;96074.34;5048704;28;20048;-73
2022/01/15 05:03:12;;;;;;;5.10;0.90;;;;;;;0.39;63.44;96078.41;5047505;28;20049;-73
2022/01/15 05:05:38;;;;;;;3.15;1.20;;;;;;;0.37;63.34;96085.97;5047189;28;20132;-72
2022/01/15 05:08:06;;;;;;;3.38;1.20;;;;;;;0.38;63.14;96084.06;5049868;28;20056;-72
2022/01/15 05:10:33;;;;;;;6.15;1.25;;;;;;;0.41;63.00;96095.03;5048463;28;20139;-73
2022/01/15 05:13:02;;;;;;;;;;;;;;;0.42;63.01;96106.59;5041604;28;20037;-71
2022/01/15 05:15:28;;;;;;;3.00;1.08;;;;;;;0.47;62.91;96109.16;5049817;28;19970;-72
2022/01/15 05:17:55;;;;;;;5.20;1.30;;;;;;;0.39;62.97;96107.16;5050315;28;20094;-71
2022/01/15 05:20:22;;;;;;;4.53;1.40;;;;;;;0.35;62.94;96106.19;5050736;28;20049;-72
2022/01/15 05:22:50;;;;;;;4.13;1.40;;;;;;;0.41;62.76;96116.53;5045988;28;20626;-70
2022/01/15 05:25:19;;;;;;;;;;;;;;;0.44;62.97;96115.16;5050462;28;20131;-71
2022/01/15 05:27:47;;;;;;;4.63;1.60;;;;;;;0.35;62.80;96123.13;5050263;28;19929;-71
2022/01/15 05:30:14;;;;;;;6.05;1.35;;;;;;;0.35;62.77;96127.69;5047110;28;20132;-71
2022/01/15 05:32:40;;;;;;;3.30;1.10;;;;;;;0.35;62.81;96141.94;5048335;28;20136;-72
2022/01/15 05:35:07;;;;;;;5.45;1.30;;;;;;;0.34;62.58;96148.41;5049322;28;20103;-71
2022/01/15 05:37:34;;;;;;;4.30;1.08;;;;;;;0.33;62.60;96154.88;5049963;28;20048;-72
2022/01/15 05:40:00;;;;;;;3.47;1.00;;;;;;;0.36;62.68;96153.47;5049945;28;20049;-71
2022/01/15 05:42:26;;;;;;;3.30;1.25;;;;;;;0.26;62.84;96159.81;5022610;28;20041;-71
2022/01/15 05:44:54;;;;;;;5.13;1.88;;;;;;;0.29;62.98;96169.97;5048266;28;20047;-71
2022/01/15 05:47:20;;;;;;;3.60;1.30;;;;;;;0.40;62.46;96157.16;5039130;28;20056;-71
2022/01/15 05:49:46;;;;;;;3.28;1.25;;;;;;;0.45;62.25;96177.75;5041678;28;20092;-71
2022/01/15 05:52:13;;;;;;;4.28;1.27;;;;;;;0.34;62.21;96188.72;5029809;28;20102;-71
2022/01/15 05:54:39;;;;;;;4.45;1.20;;;;;;;0.41;62.16;96186.41;5049688;28;20389;-71
2022/01/15 05:57:06;;;;;;;4.93;1.30;;;;;;;0.39;62.08;96191.31;5049641;28;20489;-73
2022/01/15 05:59:32;;;;;;;4.15;1.20;;;;;;;0.42;62.15;96196.06;5029971;28;20135;-72
2022/01/15 06:02:00;;;;;;;2.13;1.02;;;;;;;0.42;62.15;96196.06;5049655;28;20216;-72
2022/01/15 06:04:26;;;;;;;8.60;1.50;;;;;;;0.36;62.14;96197.28;5036508;28;20099;-72
2022/01/15 06:06:52;;;;;;;3.83;1.10;;;;;;;0.41;61.94;96201.78;5050861;28;20037;-72
2022/01/15 06:09:18;;;;;;;5.55;1.33;;;;;;;0.44;62.13;96209.22;5047990;28;20462;-74
2022/01/15 06:11:45;;;;;;;11.98;1.75;;;;;;;0.45;61.94;96215.38;5053306;28;20098;-72
2022/01/15 06:14:11;;;;;;;4.38;1.30;;;;;;;0.47;62.02;96221.25;5047839;28;20052;-72
2022/01/15 06:16:37;;;;;;;4.07;1.40;;;;;;;0.44;61.93;96217.28;5046022;28;20040;-71
2022/01/15 06:19:04;;;;;;;4.13;1.40;;;;;;;0.50;61.99;96223.38;5038432;28;20053;-73
2022/01/15 06:21:31;;;;;;;3.90;1.20;;;;;;;0.50;61.79;96226.84;5044393;28;20052;-73
2022/01/15 06:23:57;;;;;;;4.53;1.30;;;;;;;0.56;61.58;96219.50;5047303;28;20406;-73
2022/01/15 06:26:23;;;;;;;2.50;0.85;;;;;;;0.64;61.15;96250.28;5046856;28;20045;-72
2022/01/15 06:28:49;;;;;;;3.17;1.20;;;;;;;0.65;61.11;96231.16;5066794;28;20048;-71
2022/01/15 06:31:17;;;;;;;5.18;1.42;;;;;;;0.68;61.33;96240.50;5053402;28;20145;-72
2022/01/15 06:33:44;;;;;;;4.55;1.10;;;;;;;0.62;61.23;96233.66;5044586;28;20513;-72
2022/01/15 06:36:12;;;;;;;3.85;1.38;;;;;;;0.59;61.44;96253.84;5043867;28;20056;-72
2022/01/15 06:38:37;;;;;;;;;;;;;;;0.59;61.68;96261.91;5049908;28;20103;-72
2022/01/15 06:41:04;;;;;;;2.42;1.17;;;;;;;0.52;61.95;96253.44;5031994;28;19937;-72
2022/01/15 06:43:30;;;;;;;4.68;1.40;;;;;;;0.63;61.60;96254.06;5052149;28;20484;-72
2022/01/15 06:45:56;;;;;;;4.45;1.20;;;;;;;0.56;61.77;96263.31;5047202;28;20049;-72
2022/01/15 06:48:23;;;;;;;2.42;1.13;;;;;;;0.58;62.17;96270.28;5047192;28;20635;-73
2022/01/15 06:50:49;;;;;;;3.58;1.40;;;;;;;0.61;62.34;96258.94;5048464;28;20078;-72
2022/01/15 06:53:16;;;;;;;3.35;1.33;;;;;;;0.57;62.33;96261.41;5049697;28;20509;-72
2022/01/15 06:55:45;;;;;;;6.80;1.15;;;;;;;0.75;62.04;96272.41;5052773;28;20095;-72
2022/01/15 06:58:12;;;;;;;7.55;1.50;;;;;;;0.70;61.78;96276.78;5052043;28;20182;-73
2022/01/15 07:00:38;;;;;;;4.07;1.30;;;;;;;0.71;61.83;96280.28;5051180;28;20049;-72
2022/01/15 07:03:04;;;;;;;4.75;1.50;;;;;;;0.73;61.99;96282.66;5052058;28;20155;-72
2022/01/15 07:05:31;;;;;;;4.03;1.45;;;;;;;0.71;61.88;96296.41;5051660;28;20044;-71
2022/01/15 07:07:57;;;;;;;4.50;1.40;;;;;;;0.59;62.19;96282.66;5068035;28;20061;-72
2022/01/15 07:10:25;;;;;;;6.00;1.58;;;;;;;0.67;62.20;96304.28;5052031;28;20041;-72
2022/01/15 07:12:51;;;;;;;;;;;;;;;0.76;61.68;96307.06;5046943;28;20045;-73
2022/01/15 07:15:17;;;;;;;4.65;1.60;;;;;;;0.68;61.99;96303.19;5049006;28;19928;-73
2022/01/15 07:17:45;;;;;;;6.13;1.40;;;;;;;0.63;62.20;96305.16;5051790;28;20047;-73
2022/01/15 07:20:12;;;;;;;3.97;1.23;;;;;;;0.61;62.22;96294.69;5050601;28;20059;-72
2022/01/15 07:22:39;;;;;;;6.65;1.50;;;;;;;0.67;62.08;96319.59;5045960;28;20045;-72
2022/01/15 07:25:07;;;;;;;5.90;1.40;;;;;;;0.73;61.69;96312.25;5052022;28;20048;-73
2022/01/15 07:27:34;;;;;;;;;;;;;;;0.75;61.55;96321.63;5050827;28;20565;-72
2022/01/15 07:30:01;;;;;;;4.22;1.40;;;;;;;0.79;61.38;96319.94;5047787;28;19968;-72
2022/01/15 07:32:29;;;;;;;5.15;1.40;;;;;;;0.82;61.10;96323.91;5052242;28;20458;-74
2022/01/15 07:34:55;;;;;;;6.65;1.50;;;;;;;0.85;61.08;96334.88;5049228;28;20048;-73
2022/01/15 07:37:21;;;;;;;6.43;1.83;;;;;;;0.81;61.11;96322.34;5050509;28;20048;-72
2022/01/15 07:39:47;;;;;;;2.72;1.13;;;;;;;0.86;61.03;96338.38;5052773;28;20047;-73
2022/01/15 07:42:14;;;;;;;4.20;1.15;;;;;;;0.89;61.44;96343.16;5047817;28;20136;-72
2022/01/15 07:44:41;;;;;;;7.57;1.40;;;;;;;0.82;61.43;96351.59;5040520;28;20084;-72
2022/01/15 07:47:10;;;;;;;3.42;1.20;;;;;;;0.79;61.31;96357.56;5048579;28;20047;-73
2022/01/15 07:49:36;;;;;;;5.75;1.35;;;;;;;0.86;61.20;96365.28;5047512;28;20072;-73
2022/01/15 07:52:03;;;;;;;3.55;1.10;;;;;;;0.97;60.74;96358.63;5037377;28;20520;-72
2022/01/15 07:54:30;;;;;;;7.35;1.48;;;;;;;0.84;60.55;96354.78;5045828;28;20061;-72
2022/01/15 07:56:58;;;;;;;3.83;1.30;;;;;;;0.91;60.82;96367.06;5040546;28;20128;-73
2022/01/15 07:59:30;;;;;;;7.22;1.80;;;;;;;0.85;60.49;96363.66;5041379;28;20138;-73
2022/01/15 08:01:58;;;;;;;5.47;2.13;;;;;;;0.92;60.63;96395.56;5041469;28;20139;-73
2022/01/15 08:04:24;;;;;;;5.78;1.75;;;;;;;0.98;60.32;96368.28;5039568;28;20505;-72
2022/01/15 08:06:51;;;;;;;6.28;1.92;;;;;;;1.05;60.70;96367.09;5038176;28;20048;-70
2022/01/15 08:09:17;;;;;;;6.22;1.95;;;;;;;1.16;60.57;96379.28;5050312;28;20505;-70
2022/01/15 08:11:43;;;;;;;11.27;2.63;;;;;;;1.14;60.37;96386.84;5047537;28;20471;-70
2022/01/15 08:14:09;;;;;;;4.72;1.80;;;;;;;1.07;61.00;96383.72;5040808;28;20064;-69
2022/01/15 08:16:35;;;;;;;10.07;2.28;;;;;;;1.13;60.80;96396.81;5048713;28;20628;-69
2022/01/15 08:19:02;;;;;;;6.75;1.65;;;;;;;1.02;61.04;96391.91;5037744;28;20511;-69
2022/01/15 08:21:49;;;;;;;8.85;1.88;;;;;;;0.76;61.17;96374.31;5049466;28;20459;-70
2022/01/15 08:24:16;;;;;;;;;;;;;;;1.08;60.91;96414.94;5038855;28;20080;-70
2022/01/15 08:26:42;;;;;;;10.18;2.08;;;;;;;1.02;60.86;96418.81;5046128;28;19925;-70
2022/01/15 08:29:08;;;;;;;7.13;1.90;;;;;;;0.99;61.00;96415.63;5045018;28;20048;-70
2022/01/15 08:31:34;;;;;;;8.73;1.80;;;;;;;1.00;61.36;96411.03;5049992;28;20041;-71
2022/01/15 08:34:02;;;;;;;4.85;1.65;;;;;;;1.15;61.33;96428.81;5050334;28;20051;-69
2022/01/15 08:36:28;;;;;;;4.57;1.65;;;;;;;0.99;61.79;96437.16;5048788;28;20421;-71
2022/01/15 08:38:57;;;;;;;7.30;1.55;;;;;;;0.91;62.59;96437.81;5049088;28;20053;-72
2022/01/15 08:41:24;;;;;;;5.80;1.42;;;;;;;0.94;62.48;96439.94;5047457;28;20062;-70
2022/01/15 08:43:50;;;;;;;7.68;1.75;;;;;;;0.91;62.42;96448.56;5047195;28;20069;-69
2022/01/15 08:46:18;;;;;;;6.93;1.88;;;;;;;0.97;62.15;96447.41;5033163;28;20076;-73
2022/01/15 08:48:44;;;;;;;7.70;1.90;;;;;;;1.07;61.87;96448.31;5048149;28;20556;-71
2022/01/15 08:51:32;;;;;;;5.10;1.60;;;;;;;1.08;61.22;96441.84;5045775;28;20052;-72
2022/01/15 08:53:57;;;;;;;6.30;1.75;;;;;;;1.10;60.56;96467.38;5042193;28;20407;-72
2022/01/15 08:56:25;;;;;;;5.10;1.70;;;;;;;1.12;60.56;96467.09;5053552;28;20509;-72
2022/01/15 08:58:52;;;;;;;3.25;1.27;;;;;;;1.10;60.33;96463.91;5027896;28;20045;-69
2022/01/15 09:01:18;;;;;;;4.47;1.52;;;;;;;1.08;60.08;96472.25;5027088;28;20498;-69
2022/01/15 09:03:44;;;;;;;7.97;1.40;;;;;;;1.11;59.78;96471.66;5044561;28;20045;-68
2022/01/15 09:06:12;;;;;;;5.55;1.50;;;;;;;1.04;59.59;96471.25;5048836;28;20413;-70
2022/01/15 09:08:39;;;;;;;12.27;1.55;;;;;;;1.01;59.89;96479.88;5049897;28;20506;-68
2022/01/15 09:11:06;;;;;;;6.80;1.50;;;;;;;1.18;59.22;96470.50;5024348;28;20045;-70
2022/01/15 09:13:33;;;;;;;3.07;1.33;;;;;;;1.18;58.91;96484.72;5041391;28;20053;-70
2022/01/15 09:15:58;;;;;;;5.93;1.60;;;;;;;1.23;58.29;96456.94;5045891;28;20331;-70
2022/01/15 09:18:24;;;;;;;3.67;1.38;;;;;;;1.16;58.20;96470.78;5041811;28;20053;-69
2022/01/15 09:20:51;;;;;;;5.05;1.17;;;;;;;1.26;57.94;96473.31;5044748;28;20504;-70
2022/01/15 09:23:17;;;;;;;3.72;1.30;;;;;;;1.20;57.92;96485.22;5046847;28;20099;-68
2022/01/15 09:25:44;;;;;;;6.15;1.48;;;;;;;1.28;57.47;96481.06;5045133;28;20053;-69
2022/01/15 09:30:56;;;;;;;4.10;1.20;;;;;;;1.32;57.31;96500.13;5046528;28;20189;-70
2022/01/15 09:33:22;;;;;;;3.05;1.30;;;;;;;1.19;57.37;96513.25;5024484;28;20154;-68
2022/01/15 09:35:48;;;;;;;10.35;1.60;;;;;;;1.23;57.83;96508.09;5052586;28;20635;-70
2022/01/15 09:38:17;;;;;;;4.03;1.33;;;;;;;1.20;57.74;96506.78;5047734;28;20068;-71
2022/01/15 09:40:45;;;;;;;5.60;1.88;;;;;;;1.08;58.23;96509.09;5050347;28;20041;-71
2022/01/15 09:43:12;;;;;;;;;;;;;;;1.21;58.18;96526.41;5067148;28;20104;-70
2022/01/15 09:45:39;;;;;;;3.35;1.30;;;;;;;0.93;59.14;96512.84;5072853;28;20363;-71
2022/01/15 09:48:07;;;;;;;3.95;1.33;;;;;;;1.10;59.21;96533.88;5050021;28;20045;-68
2022/01/15 09:50:36;;;;;;;4.07;1.30;;;;;;;1.10;59.41;96541.94;5053453;28;20476;-69
2022/01/15 09:53:03;;;;;;;4.28;1.58;;;;;;;1.11;60.03;96544.31;5043441;28;20137;-67
2022/01/15 09:55:29;;;;;;;8.23;2.22;;;;;;;1.07;60.06;96548.69;5048972;28;20094;-69
2022/01/15 09:57:57;;;;;;;8.60;2.00;;;;;;;1.12;60.17;96562.06;5050473;28;20036;-68
2022/01/15 10:00:24;;;;;;;;;;;;;;;1.19;60.10;96561.69;5055431;28;20076;-68
2022/01/15 10:02:52;;;;;;;6.35;1.60;;;;;;;1.32;59.54;96549.38;5054372;28;19932;-68
2022/01/15 10:05:21;;;;;;;6.30;1.40;;;;;;;1.33;59.59;96569.03;5053154;28;20057;-70
2022/01/15 10:08:01;;;;;;;9.57;1.58;;;;;;;1.37;59.44;96570.84;5027252;28;20594;-72
2022/01/15 10:10:35;;;;;;;5.78;1.58;;;;;;;1.33;59.47;96575.22;5033252;28;20544;-70
2022/01/15 10:13:14;;;;;;;6.45;1.75;;;;;;;1.33;59.47;96567.16;5042011;28;20498;-67
2022/01/15 10:15:42;;;;;;;6.72;1.77;;;;;;;1.32;59.84;96559.34;5045412;28;20054;-67
2022/01/15 10:18:20;;;;;;;5.35;1.63;;;;;;;1.30;60.29;96583.88;5057833;28;20137;-68
2022/01/15 10:20:46;;;;;;;5.88;1.42;;;;;;;1.38;60.09;96583.22;5074827;28;20076;-68
2022/01/15 10:23:15;;;;;;;5.22;1.55;;;;;;;1.31;60.29;96587.38;5044849;28;20048;-69
2022/01/15 10:25:43;;;;;;;7.20;1.90;;;;;;;1.24;60.53;96601.97;5048132;28;20037;-67
2022/01/15 10:28:09;;;;;;;6.78;1.70;;;;;;;1.22;60.27;96587.22;5069243;28;20061;-67
2022/01/15 10:30:38;;;;;;;8.32;1.55;;;;;;;1.37;59.64;96584.31;5034992;28;20042;-67
2022/01/15 10:33:06;;;;;;;7.55;1.77;;;;;;;1.38;59.49;96598.56;5047590;28;20130;-67
2022/01/15 10:35:34;;;;;;;4.55;1.40;;;;;;;1.41;59.52;96598.00;5050478;28;20080;-66
2022/01/15 10:38:02;;;;;;;4.88;1.48;;;;;;;1.48;59.00;96608.34;5051260;28;20041;-66
2022/01/15 10:40:38;;;;;;;6.80;1.90;;;;;;;1.39;58.96;96592.06;5051182;28;20056;-66
2022/01/15 10:43:05;;;;;;;8.82;1.83;;;;;;;1.45;59.08;96595.50;5033585;28;20147;-67
2022/01/15 10:45:34;;;;;;;9.05;2.08;;;;;;;1.43;58.51;96611.94;5053125;28;20037;-69
2022/01/15 10:48:08;;;;;;;4.57;1.52;;;;;;;1.35;58.43;96610.72;5051546;28;20041;-68
2022/01/15 10:50:36;;;;;;;6.70;1.83;;;;;;;1.42;58.17;96618.44;5046212;28;20068;-67
2022/01/15 10:53:06;;;;;;;6.60;1.90;;;;;;;1.38;58.49;96612.81;5046490;28;20501;-67
2022/01/15 10:55:34;;;;;;;5.80;1.67;;;;;;;1.39;58.73;96630.56;5051120;28;20055;-67
2022/01/15 10:58:01;;;;;;;;;;;;;;;1.30;58.77;96618.84;5050451;28;20060;-68
2022/01/15 11:00:29;;;;;;;5.80;1.58;;;;;;;1.38;58.94;96644.31;5051350;28;19925;-68
2022/01/15 11:02:56;;;;;;;;;;;;;;;1.29;59.28;96662.25;5048635;28;20049;-68
2022/01/15 11:05:28;;;;;;;;;;;;;;;1.20;59.48;96664.78;5052900;28;19925;-67
2022/01/15 11:08:03;;;;;;;8.52;1.67;;;;;;;1.21;59.31;96663.69;5051633;28;19925;-66
2022/01/15 11:10:35;;;;;;;5.63;1.55;;;;;;;1.23;59.32;96681.13;5039296;28;20055;-67
2022/01/15 11:13:04;;;;;;;5.22;1.30;;;;;;;1.17;59.67;96695.75;5049499;28;20041;-66
2022/01/15 11:15:31;;;;;;;8.68;2.00;;;;;;;1.20;59.85;96683.63;5050035;28;20044;-67
2022/01/15 11:17:57;;;;;;;6.82;2.10;;;;;;;1.31;59.40;96673.50;5051588;28;20049;-68
2022/01/15 11:20:28;;;;;;;7.47;2.03;;;;;;;1.35;59.58;96693.38;5047141;28;20529;-67
2022/01/15 11:22:56;;;;;;;3.83;1.42;;;;;;;1.39;59.31;96705.16;5044904;28;20044;-66
2022/01/15 11:25:22;;;;;;;7.05;1.88;;;;;;;1.35;59.20;96685.28;5063303;28;20049;-66
2022/01/15 11:27:49;;;;;;;7.00;1.52;;;;;;;1.26;59.46;96706.69;5052674;28;20111;-67
2022/01/15 11:30:18;;;;;;;6.97;1.63;;;;;;;1.32;58.71;96710.91;5034212;28;20387;-67
2022/01/15 11:32:44;;;;;;;8.15;1.70;;;;;;;1.42;58.52;96726.13;5049342;28;20552;-64
2022/01/15 11:35:11;;;;;;;4.15;1.60;;;;;;;1.39;58.14;96719.44;5051696;28;20341;-67
2022/01/15 11:37:46;;;;;;;6.80;1.60;;;;;;;1.34;58.50;96727.59;5044977;28;20060;-67
2022/01/15 11:40:39;;;;;;;8.05;1.80;;;;;;;1.33;58.13;96747.53;5044850;28;20053;-65
2022/01/15 11:43:38;;;;;;;7.15;1.80;;;;;;;1.17;58.41;96733.44;5041513;28;20110;-68
2022/01/15 11:46:06;;;;;;;5.65;1.60;;;;;;;1.06;58.74;96740.03;5033594;28;20085;-66
2022/01/15 11:48:40;;;;;;;7.18;1.88;;;;;;;1.19;58.41;96752.00;5046891;28;20057;-66
2022/01/15 11:51:24;;;;;;;6.57;1.60;;;;;;;1.11;58.35;96750.75;5046940;28;20057;-66
2022/01/15 11:53:53;;;;;;;6.28;1.80;;;;;;;1.11;58.62;96756.13;5051808;28;20573;-66
2022/01/15 11:56:22;;;;;;;8.60;1.77;;;;;;;0.95;58.70;96745.56;5048523;28;20229;-66
2022/01/15 11:58:51;;;;;;;12.20;1.88;;;;;;;1.01;58.77;96764.31;5040157;28;20040;-66
2022/01/15 12:01:37;;;;;;;8.63;1.90;;;;;;;1.05;58.81;96768.84;5055094;28;20074;-66
2022/01/15 12:04:23;;;;;;;8.20;1.92;;;;;;;1.11;58.28;96780.38;5033258;28;20072;-67